Time;durP1;ratioP1;P1;durP2;ratioP2;P2;SDS_P1;SDS_P2;PMS_P1;PMS_P2;Temp;Humidity;BMP_temperature;BMP_pressure;BME280_temperature;BME280_humidity;BME280_pressure;Samples;Min_cycle;Max_cycle;Signal;HPM_P1;HPM_P2
2021/04/20 00:01:11;;;;;;;5.20;3.50;;;;;;;6.61;66.03;98143.41;5063837;28;46854;-85
2021/04/20 00:03:37;;;;;;;4.22;2.90;;;;;;;6.42;65.09;98139.72;5055985;28;45460;-84
2021/04/20 00:06:05;;;;;;;5.78;3.83;;;;;;;6.46;66.11;98139.47;5057903;28;45497;-84
2021/04/20 00:08:31;;;;;;;5.47;2.85;;;;;;;6.63;62.63;98135.38;5057899;28;45323;-84
2021/04/20 00:10:56;;;;;;;6.28;3.95;;;;;;;6.50;66.61;98135.59;5064227;28;45336;-83
2021/04/20 00:13:22;;;;;;;6.38;2.78;;;;;;;6.46;66.47;98128.91;5067057;28;45351;-83
2021/04/20 00:15:47;;;;;;;7.13;4.10;;;;;;;6.27;66.69;98135.78;5071367;28;45489;-82
2021/04/20 00:18:13;;;;;;;18.15;10.30;;;;;;;6.24;66.87;98136.03;5061835;28;45522;-83
2021/04/20 00:20:38;;;;;;;11.45;7.10;;;;;;;6.24;65.29;98136.03;5061161;28;45426;-81
2021/04/20 00:23:05;;;;;;;5.60;3.50;;;;;;;6.18;65.84;98134.75;5067885;28;45300;-81
2021/04/20 00:25:31;;;;;;;6.72;3.15;;;;;;;6.18;64.74;98137.38;5057266;28;45372;-81
2021/04/20 00:27:57;;;;;;;4.75;2.50;;;;;;;6.24;64.82;98128.13;5066109;28;45282;-81
2021/04/20 00:30:22;;;;;;;4.97;2.85;;;;;;;6.08;67.55;98133.84;5063663;27;46303;-81
2021/04/20 00:32:48;;;;;;;4.45;2.70;;;;;;;5.99;67.55;98135.47;5077725;27;45385;-81
2021/04/20 00:35:13;;;;;;;4.20;2.90;;;;;;;5.95;66.29;98139.31;5070888;27;45422;-81
2021/04/20 00:37:41;;;;;;;4.57;2.90;;;;;;;6.14;66.96;98135.97;5069239;27;45545;-83
2021/04/20 00:40:09;;;;;;;4.75;2.92;;;;;;;6.13;65.20;98129.88;5055751;28;47493;-82
2021/04/20 00:42:52;;;;;;;5.20;3.00;;;;;;;6.11;66.25;98136.22;5072455;28;45297;-83
2021/04/20 00:45:22;;;;;;;4.60;2.80;;;;;;;6.12;65.87;98125.56;5057415;28;45268;-83
2021/04/20 00:47:48;;;;;;;5.13;2.93;;;;;;;6.10;66.59;98126.66;5057553;28;45323;-83
2021/04/20 00:50:15;;;;;;;5.35;3.03;;;;;;;5.87;67.64;98128.56;5056980;28;45352;-83
2021/04/20 00:52:42;;;;;;;3.95;2.85;;;;;;;5.81;66.54;98130.78;5072977;28;45296;-82
2021/04/20 00:55:07;;;;;;;4.45;2.70;;;;;;;5.79;67.55;98126.56;5070804;28;45317;-81
2021/04/20 00:57:33;;;;;;;6.10;2.90;;;;;;;5.72;67.38;98123.59;5072877;28;45652;-81
2021/04/20 00:59:58;;;;;;;6.10;3.42;;;;;;;5.86;67.75;98126.91;5057065;28;46011;-82
2021/04/20 01:02:24;;;;;;;5.88;3.40;;;;;;;5.94;66.46;98127.09;5075234;28;45465;-82
2021/04/20 01:04:50;;;;;;;4.80;3.28;;;;;;;5.99;66.87;98131.00;5057583;27;45438;-82
2021/04/20 01:07:16;;;;;;;5.40;3.53;;;;;;;6.04;66.46;98125.38;5072832;28;45259;-82
2021/04/20 01:09:42;;;;;;;4.53;3.15;;;;;;;5.98;70.13;98113.50;5057004;28;45302;-82
2021/04/20 01:12:08;;;;;;;5.43;3.17;;;;;;;5.70;68.39;98130.81;5071411;28;45632;-82
2021/04/20 01:14:35;;;;;;;3.92;2.88;;;;;;;5.64;68.62;98131.31;5062724;27;45450;-81
2021/04/20 01:17:00;;;;;;;3.70;2.67;;;;;;;5.67;67.25;98128.41;5068911;27;45297;-82
2021/04/20 01:19:27;;;;;;;5.15;3.25;;;;;;;5.90;67.68;98133.59;5060410;28;45316;-82
2021/04/20 01:21:55;;;;;;;4.50;3.00;;;;;;;5.49;69.74;98131.63;5088902;27;45542;-82
2021/04/20 01:24:28;;;;;;;3.55;2.80;;;;;;;5.44;69.30;98132.97;5074591;27;45476;-82
2021/04/20 01:26:55;;;;;;;6.43;2.85;;;;;;;5.42;67.40;98129.63;5059805;28;45190;-81
2021/04/20 01:29:23;;;;;;;4.13;2.60;;;;;;;5.59;66.21;98125.59;5073641;28;45313;-82
2021/04/20 01:31:50;;;;;;;7.30;3.00;;;;;;;5.65;65.59;98133.00;5071684;28;45364;-83
2021/04/20 01:34:16;;;;;;;7.25;4.28;;;;;;;5.65;67.10;98127.72;5072951;27;45432;-82
2021/04/20 01:36:42;;;;;;;4.30;2.92;;;;;;;5.42;69.00;98133.09;5078965;27;45569;-82
2021/04/20 01:39:10;;;;;;;5.15;3.03;;;;;;;5.41;67.70;98136.69;5060245;28;45336;-83
2021/04/20 01:41:36;;;;;;;5.47;3.08;;;;;;;5.61;67.66;98135.06;5069225;28;45576;-83
2021/04/20 01:44:04;;;;;;;4.20;3.00;;;;;;;5.57;69.87;98140.72;5071917;27;45241;-83
2021/04/20 01:46:29;;;;;;;5.60;3.60;;;;;;;5.62;68.22;98135.88;5073046;28;45411;-83
2021/04/20 01:48:55;;;;;;;5.28;3.50;;;;;;;5.57;68.19;98135.44;5071316;27;46509;-83
2021/04/20 01:51:22;;;;;;;5.47;3.63;;;;;;;5.32;68.99;98140.94;5067132;28;45491;-83
2021/04/20 01:53:48;;;;;;;6.60;3.20;;;;;;;5.29;68.90;98138.53;5071386;28;45321;-82
2021/04/20 01:56:14;;;;;;;4.68;3.40;;;;;;;5.28;71.06;98142.13;5059712;28;45264;-83
2021/04/20 01:58:40;;;;;;;5.15;2.88;;;;;;;5.14;71.39;98145.91;5060673;28;46161;-84
2021/04/20 02:01:10;;;;;;;4.07;3.08;;;;;;;5.35;69.05;98142.47;5064672;28;45223;-83
2021/04/20 02:03:36;;;;;;;4.53;3.15;;;;;;;5.29;69.90;98140.34;5070250;27;45511;-83
2021/04/20 02:06:02;;;;;;;4.22;3.00;;;;;;;5.19;69.08;98137.59;5058389;28;45346;-83
2021/04/20 02:08:28;;;;;;;5.13;3.08;;;;;;;5.15;70.67;98138.81;5059750;28;46086;-83
2021/04/20 02:10:56;;;;;;;5.07;3.30;;;;;;;5.08;70.87;98141.94;5062135;28;45268;-83
2021/04/20 02:13:21;;;;;;;3.92;2.60;;;;;;;5.05;68.94;98149.28;5071251;27;45302;-83
2021/04/20 02:15:48;;;;;;;5.50;3.20;;;;;;;5.23;69.48;98141.66;5071779;28;45590;-83
2021/04/20 02:18:14;;;;;;;4.82;3.00;;;;;;;5.30;71.02;98145.50;5059725;28;45320;-83
2021/04/20 02:20:41;;;;;;;6.03;3.33;;;;;;;5.19;71.34;98135.81;5059947;28;45518;-83
2021/04/20 02:23:08;;;;;;;3.60;2.63;;;;;;;5.05;69.96;98133.47;5079352;28;45346;-83
2021/04/20 02:25:34;;;;;;;6.00;3.00;;;;;;;5.01;71.21;98137.31;5076164;28;45535;-83
2021/04/20 02:28:00;;;;;;;4.88;2.78;;;;;;;5.09;70.31;98134.91;5084342;27;47145;-83
2021/04/20 02:30:29;;;;;;;4.82;3.38;;;;;;;5.09;72.21;98132.25;5063049;28;45232;-83
2021/04/20 02:32:58;;;;;;;5.60;3.55;;;;;;;4.95;71.87;98136.84;5078471;28;45351;-83
2021/04/20 02:35:27;;;;;;;6.70;3.58;;;;;;;4.88;71.50;98135.66;5071455;27;45467;-83
2021/04/20 02:37:52;;;;;;;4.97;3.03;;;;;;;5.02;71.49;98134.53;5068557;27;45290;-83
2021/04/20 02:40:24;;;;;;;5.00;3.30;;;;;;;4.91;72.02;98143.31;5058653;28;45493;-83
2021/04/20 02:42:51;;;;;;;6.20;3.67;;;;;;;5.01;70.17;98137.31;5079574;28;45292;-83
2021/04/20 02:45:19;;;;;;;4.90;3.60;;;;;;;4.96;71.81;98135.03;5062911;27;45607;-82
2021/04/20 02:47:45;;;;;;;6.18;3.90;;;;;;;4.91;70.42;98143.31;5059222;28;45414;-83
2021/04/20 02:50:29;;;;;;;6.47;4.38;;;;;;;5.14;69.33;98142.41;5059039;28;45338;-83
2021/04/20 02:52:57;;;;;;;5.38;3.45;;;;;;;4.99;69.98;98145.31;5087864;27;45387;-83
2021/04/20 02:55:24;;;;;;;6.60;3.50;;;;;;;4.96;70.42;98146.44;5057669;28;45438;-82
2021/04/20 02:57:52;;;;;;;5.70;3.33;;;;;;;5.02;69.92;98145.09;5058922;28;45425;-83
2021/04/20 03:00:21;;;;;;;4.90;3.25;;;;;;;4.95;71.05;98147.38;5059645;28;45371;-82
2021/04/20 03:02:51;;;;;;;5.88;3.20;;;;;;;5.05;69.02;98154.56;5078506;27;45367;-82
2021/04/20 03:05:18;;;;;;;8.63;3.22;;;;;;;4.87;70.98;98148.94;5067189;28;45428;-83
2021/04/20 03:07:45;;;;;;;6.20;3.60;;;;;;;4.75;71.42;98142.84;5063758;27;46031;-83
2021/04/20 03:10:12;;;;;;;4.70;3.45;;;;;;;4.74;72.60;98144.66;5058694;28;45474;-83
2021/04/20 03:12:41;;;;;;;5.50;3.40;;;;;;;4.67;73.85;98146.91;5075802;27;45518;-83
2021/04/20 03:15:09;;;;;;;5.03;3.22;;;;;;;4.68;72.95;98147.78;5058820;28;45285;-83
2021/04/20 03:17:34;;;;;;;5.10;3.38;;;;;;;4.64;73.13;98149.81;5058576;28;45422;-82
2021/04/20 03:20:00;;;;;;;4.70;3.22;;;;;;;4.51;72.79;98147.31;5058616;28;45328;-83
2021/04/20 03:22:26;;;;;;;4.85;3.60;;;;;;;4.45;73.67;98142.53;5073825;28;45452;-83
2021/04/20 03:25:04;;;;;;;6.05;3.47;;;;;;;4.55;73.15;98145.25;5058478;28;45502;-82
2021/04/20 03:27:30;;;;;;;4.60;3.42;;;;;;;4.66;73.43;98149.69;5071345;28;48079;-83
2021/04/20 03:29:55;;;;;;;6.90;3.80;;;;;;;4.52;72.89;98138.44;5071951;28;45242;-83
2021/04/20 03:32:21;;;;;;;5.47;3.45;;;;;;;4.38;73.60;98142.16;5060670;28;45512;-83
2021/04/20 03:35:10;;;;;;;5.03;3.60;;;;;;;4.72;70.59;98137.81;5079258;27;45266;-83
2021/04/20 03:37:47;;;;;;;7.38;3.78;;;;;;;4.60;72.60;98137.00;5067159;27;46075;-83
2021/04/20 03:40:15;;;;;;;4.78;3.20;;;;;;;4.34;73.84;98135.44;5060009;28;45387;-83
2021/04/20 03:42:44;;;;;;;4.47;3.33;;;;;;;4.38;73.03;98136.03;5073902;28;45246;-83
2021/04/20 03:45:16;;;;;;;5.57;3.70;;;;;;;4.50;72.71;98140.38;5064853;28;45292;-83
2021/04/20 03:47:50;;;;;;;5.88;3.50;;;;;;;4.42;73.59;98137.50;5061704;27;45506;-83
2021/04/20 03:50:22;;;;;;;6.20;3.47;;;;;;;4.47;72.53;98130.06;5058323;28;45214;-83
2021/04/20 03:52:52;;;;;;;5.22;3.22;;;;;;;4.43;73.19;98136.53;5058330;28;45311;-83
2021/04/20 03:55:21;;;;;;;6.07;3.65;;;;;;;4.61;72.75;98136.88;5058007;28;45202;-83
2021/04/20 03:57:49;;;;;;;7.43;3.38;;;;;;;4.52;73.10;98133.19;5057766;28;45436;-83
2021/04/20 04:00:17;;;;;;;4.95;3.60;;;;;;;4.33;72.89;98138.19;5058292;28;45229;-84
2021/04/20 04:02:45;;;;;;;4.97;3.40;;;;;;;4.33;74.64;98139.03;5059060;28;45242;-83
2021/04/20 04:05:16;;;;;;;6.45;4.35;;;;;;;4.22;74.32;98137.22;5060731;28;45345;-84
2021/04/20 04:07:43;;;;;;;17.00;8.98;;;;;;;4.32;74.45;98132.09;5057731;28;45492;-83
2021/04/20 04:10:10;;;;;;;7.57;4.43;;;;;;;4.45;73.19;98131.13;5066045;28;45396;-82
2021/04/20 04:12:39;;;;;;;5.18;3.70;;;;;;;4.38;74.42;98128.97;5070884;28;45249;-83
2021/04/20 04:15:08;;;;;;;5.95;3.25;;;;;;;4.31;75.01;98134.84;5067264;28;45228;-82
2021/04/20 04:17:36;;;;;;;6.93;3.70;;;;;;;4.19;74.62;98126.94;5061230;27;45465;-82
2021/04/20 04:20:04;;;;;;;4.97;3.58;;;;;;;4.24;75.32;98131.84;5069864;28;45554;-83
2021/04/20 04:22:36;;;;;;;4.75;3.70;;;;;;;4.41;73.73;98129.69;5060451;27;45276;-82
2021/04/20 04:25:05;;;;;;;4.78;3.30;;;;;;;4.23;74.24;98138.91;5057589;28;45250;-82
2021/04/20 04:27:36;;;;;;;5.03;3.45;;;;;;;4.11;74.75;98131.13;5062647;28;46352;-83
2021/04/20 04:30:06;;;;;;;5.45;3.20;;;;;;;4.09;74.74;98132.09;5073209;28;45594;-81
2021/04/20 04:32:33;;;;;;;6.18;3.35;;;;;;;4.20;73.05;98128.59;5064739;28;45315;-83
2021/04/20 04:35:02;;;;;;;4.68;3.30;;;;;;;4.20;73.36;98127.78;5068089;27;45378;-83
2021/04/20 04:37:28;;;;;;;5.35;3.42;;;;;;;4.31;73.76;98134.84;5070199;27;45328;-83
2021/04/20 04:39:54;;;;;;;5.25;3.78;;;;;;;4.33;73.91;98128.50;5058098;28;45422;-82
2021/04/20 04:42:19;;;;;;;5.97;4.07;;;;;;;4.31;74.00;98138.31;5060866;28;45376;-83
2021/04/20 04:44:48;;;;;;;5.57;3.35;;;;;;;4.21;73.84;98129.47;5070976;28;45255;-82
2021/04/20 04:47:14;;;;;;;7.90;4.10;;;;;;;4.11;74.97;98133.75;5057446;28;46117;-82
2021/04/20 04:49:39;;;;;;;4.97;3.35;;;;;;;4.08;76.38;98129.56;5059693;28;45382;-82
2021/04/20 04:52:06;;;;;;;6.40;3.70;;;;;;;4.05;76.70;98129.78;5061230;28;45359;-83
2021/04/20 04:54:32;;;;;;;5.30;3.28;;;;;;;4.17;75.64;98130.66;5060991;28;45388;-83
2021/04/20 04:57:00;;;;;;;4.63;3.30;;;;;;;4.30;73.39;98138.44;5060390;28;45417;-83
2021/04/20 04:59:27;;;;;;;5.38;3.53;;;;;;;4.55;73.84;98142.63;5061867;28;45478;-83
2021/04/20 05:01:53;;;;;;;5.32;3.63;;;;;;;4.73;72.22;98139.50;5065781;28;45334;-82
2021/04/20 05:04:24;;;;;;;4.95;3.30;;;;;;;4.76;71.15;98141.88;5070922;28;45465;-81
2021/04/20 05:06:50;;;;;;;7.05;3.38;;;;;;;4.82;71.49;98149.31;5059705;28;45301;-81
2021/04/20 05:09:21;;;;;;;4.97;3.20;;;;;;;4.84;70.92;98144.75;5063999;28;45530;-82
2021/04/20 05:11:48;;;;;;;8.98;3.80;;;;;;;4.62;74.17;98153.53;5072732;28;45392;-82
2021/04/20 05:14:15;;;;;;;5.60;3.42;;;;;;;4.33;73.70;98157.47;5066048;28;45451;-82
2021/04/20 05:16:41;;;;;;;5.22;3.58;;;;;;;4.30;74.68;98159.50;5072418;28;45281;-82
2021/04/20 05:19:10;;;;;;;4.82;3.33;;;;;;;4.38;74.89;98152.69;5060938;28;45358;-83
2021/04/20 05:21:36;;;;;;;4.47;3.33;;;;;;;4.52;74.00;98148.13;5077946;27;45566;-83
2021/04/20 05:24:02;;;;;;;5.57;3.40;;;;;;;4.67;72.91;98151.38;5079595;28;45348;-83
2021/04/20 05:26:31;;;;;;;7.03;3.92;;;;;;;4.92;72.74;98150.28;5071926;28;45602;-82
2021/04/20 05:28:58;;;;;;;11.75;5.93;;;;;;;4.87;72.90;98154.22;5080106;27;45489;-83
2021/04/20 05:31:25;;;;;;;8.00;4.85;;;;;;;4.84;72.77;98159.72;5070121;28;45794;-83
2021/04/20 05:34:04;;;;;;;6.53;4.65;;;;;;;4.87;72.45;98162.13;5065514;27;45665;-83
2021/04/20 05:36:30;;;;;;;5.82;3.97;;;;;;;5.03;72.08;98159.94;5081398;27;46273;-83
2021/04/20 05:38:58;;;;;;;5.55;3.53;;;;;;;5.23;70.49;98165.41;5065542;27;45485;-80
2021/04/20 05:41:24;;;;;;;5.68;3.60;;;;;;;4.93;70.78;98167.75;5075770;28;46248;-80
2021/04/20 05:43:54;;;;;;;5.13;3.95;;;;;;;4.89;73.13;98155.78;5072639;27;45637;-79
2021/04/20 05:46:20;;;;;;;11.68;6.47;;;;;;;4.75;73.30;98169.19;5072267;28;46039;-81
2021/04/20 05:48:47;;;;;;;12.55;7.60;;;;;;;4.70;73.05;98172.22;5072380;27;45504;-80
2021/04/20 05:51:14;;;;;;;8.85;5.80;;;;;;;4.62;73.97;98175.44;5066797;28;45345;-80
2021/04/20 05:53:39;;;;;;;7.03;4.32;;;;;;;4.68;73.33;98174.13;5068599;28;45641;-79
2021/04/20 05:56:06;;;;;;;9.35;5.93;;;;;;;4.89;72.73;98178.66;5060390;28;46176;-79
2021/04/20 05:58:32;;;;;;;9.57;6.20;;;;;;;4.81;73.37;98172.19;5069942;27;45403;-85
2021/04/20 06:01:05;;;;;;;9.27;5.82;;;;;;;4.77;73.57;98172.53;5061223;28;45520;-80
2021/04/20 06:03:36;;;;;;;13.57;11.15;;;;;;;4.65;73.27;98167.28;5063462;28;45516;-78
2021/04/20 06:06:02;;;;;;;12.77;10.48;;;;;;;4.72;74.30;98178.19;5062043;28;46258;-80
2021/04/20 06:08:31;;;;;;;14.93;13.45;;;;;;;4.89;73.20;98179.50;5058768;28;45475;-81
2021/04/20 06:10:57;;;;;;;9.95;8.88;;;;;;;4.97;72.95;98176.25;5061747;28;45403;-79
2021/04/20 06:13:26;;;;;;;9.32;5.60;;;;;;;4.98;73.28;98172.66;5058588;28;45587;-80
2021/04/20 06:15:52;;;;;;;6.55;5.60;;;;;;;4.95;74.32;98176.38;5060929;28;45437;-80
2021/04/20 06:18:18;;;;;;;5.85;4.30;;;;;;;4.92;74.32;98173.13;5066372;28;45487;-80
2021/04/20 06:20:44;;;;;;;5.80;4.00;;;;;;;5.01;74.58;98171.56;5059002;28;45416;-80
2021/04/20 06:23:10;;;;;;;5.65;3.80;;;;;;;5.04;75.02;98174.78;5070499;28;45422;-80
2021/04/20 06:25:36;;;;;;;7.10;3.47;;;;;;;5.09;74.47;98169.97;5076027;27;46210;-80
2021/04/20 06:28:03;;;;;;;9.10;5.82;;;;;;;5.25;74.06;98168.75;5060756;28;45363;-84
2021/04/20 06:30:28;;;;;;;9.02;5.03;;;;;;;5.27;73.09;98172.09;5078094;28;45348;-83
2021/04/20 06:32:54;;;;;;;6.13;3.80;;;;;;;5.16;74.46;98172.97;5079199;27;45228;-83
2021/04/20 06:35:22;;;;;;;5.63;3.30;;;;;;;5.19;73.29;98170.09;5080562;27;48395;-83
2021/04/20 06:37:50;;;;;;;5.93;4.10;;;;;;;5.39;73.48;98167.63;5078834;27;45352;-84
2021/04/20 06:40:23;;;;;;;6.30;3.88;;;;;;;5.65;71.62;98168.13;5058628;27;45419;-80
2021/04/20 06:42:53;;;;;;;4.75;3.85;;;;;;;5.76;72.13;98169.91;5058811;28;45464;-80
2021/04/20 06:45:24;;;;;;;6.13;4.15;;;;;;;5.69;72.99;98169.56;5058635;28;45334;-80
2021/04/20 06:47:58;;;;;;;6.10;4.28;;;;;;;5.68;73.20;98161.75;5076341;27;45517;-80
2021/04/20 06:50:25;;;;;;;6.07;4.43;;;;;;;5.67;73.05;98162.72;5058823;28;45513;-80
2021/04/20 06:52:59;;;;;;;6.20;4.32;;;;;;;5.63;73.74;98170.06;5058675;28;45300;-79
2021/04/20 06:56:05;;;;;;;5.18;3.60;;;;;;;5.54;73.32;98163.75;5061027;28;46957;-82
2021/04/20 06:58:50;;;;;;;5.47;3.78;;;;;;;5.66;73.07;98163.69;5067050;28;45583;-81
2021/04/20 07:01:19;;;;;;;4.75;3.60;;;;;;;5.70;73.13;98160.69;5059951;28;45443;-85
2021/04/20 07:03:57;;;;;;;4.88;3.83;;;;;;;5.68;73.11;98165.25;5058342;28;45372;-81
2021/04/20 07:06:29;;;;;;;5.95;4.07;;;;;;;5.78;72.82;98169.75;5068894;28;45614;-80
2021/04/20 07:09:08;;;;;;;5.22;3.53;;;;;;;5.96;73.08;98156.84;5058040;28;45426;-80
2021/04/20 07:11:35;;;;;;;5.53;3.72;;;;;;;5.92;71.60;98168.63;5057614;28;45406;-80
2021/04/20 07:14:03;;;;;;;4.93;3.63;;;;;;;5.97;72.64;98158.50;5061681;28;45376;-81
2021/04/20 07:16:29;;;;;;;4.07;3.20;;;;;;;6.19;72.49;98162.00;5058084;28;45356;-80
2021/04/20 07:19:11;;;;;;;4.85;3.13;;;;;;;6.25;73.33;98162.34;5058101;28;45437;-80
2021/04/20 07:22:25;;;;;;;4.63;3.60;;;;;;;6.21;72.17;98158.28;5058179;28;45362;-79
2021/04/20 07:25:18;;;;;;;5.05;3.58;;;;;;;6.08;72.76;98161.13;5044306;28;45424;-80
2021/04/20 07:28:07;;;;;;;7.07;3.45;;;;;;;6.17;71.73;98167.41;5057770;28;46364;-80
2021/04/20 07:30:38;;;;;;;6.03;4.13;;;;;;;6.48;69.04;98153.38;5065462;28;45495;-81
2021/04/20 07:33:09;;;;;;;6.55;5.80;;;;;;;6.54;67.28;98158.13;5063176;28;45485;-80
2021/04/20 07:35:43;;;;;;;9.23;5.95;;;;;;;6.61;68.52;98153.16;5074426;27;45475;-80
2021/04/20 07:38:29;;;;;;;8.35;5.05;;;;;;;6.81;68.56;98154.91;5077939;27;45381;-80
2021/04/20 07:41:10;;;;;;;7.63;5.43;;;;;;;6.84;67.81;98148.53;5057414;28;45337;-80
2021/04/20 07:44:11;;;;;;;7.88;4.95;;;;;;;7.09;66.92;98146.34;5066722;28;45339;-81
2021/04/20 07:46:39;;;;;;;;;;;;;;;7.27;65.44;98144.72;5058272;28;45372;-80
2021/04/20 07:49:22;;;;;;;7.75;5.20;;;;;;;7.35;67.11;98141.38;5057654;28;45439;-81
2021/04/20 07:51:58;;;;;;;7.60;4.95;;;;;;;7.38;65.23;98149.03;5073282;27;45392;-81
2021/04/20 07:55:05;;;;;;;7.13;4.30;;;;;;;7.44;65.03;98142.34;5069589;28;45347;-80
2021/04/20 07:57:36;;;;;;;6.50;3.85;;;;;;;7.70;62.49;98141.81;5042373;28;45391;-80
2021/04/20 08:00:15;;;;;;;4.82;3.60;;;;;;;8.12;62.20;98138.81;5064573;28;45375;-80
2021/04/20 08:02:53;;;;;;;5.65;4.00;;;;;;;8.39;62.54;98131.88;5076392;28;45416;-80
2021/04/20 08:05:27;;;;;;;6.93;4.05;;;;;;;10.42;56.26;98134.38;5067096;27;45374;-81
2021/04/20 08:08:10;;;;;;;6.93;4.00;;;;;;;10.36;55.00;98125.19;5071127;28;45382;-80
2021/04/20 08:10:49;;;;;;;5.47;3.75;;;;;;;10.90;54.57;98121.44;5056860;28;45734;-80
2021/04/20 08:13:37;;;;;;;5.57;3.72;;;;;;;10.54;54.85;98129.63;5066640;28;45215;-81
2021/04/20 08:16:14;;;;;;;6.45;4.00;;;;;;;11.91;50.93;98130.22;5071817;27;45264;-80
2021/04/20 08:18:51;;;;;;;5.03;4.18;;;;;;;11.02;52.90;98122.00;5057326;28;45400;-80
2021/04/20 08:21:17;;;;;;;6.07;3.95;;;;;;;11.33;51.28;98118.72;5057111;28;46033;-80
2021/04/20 08:23:48;;;;;;;8.60;4.50;;;;;;;13.59;45.03;98124.16;5056559;28;45435;-81
2021/04/20 08:26:19;;;;;;;5.55;3.75;;;;;;;13.05;46.72;98110.63;5056985;28;45281;-81
2021/04/20 08:28:54;;;;;;;6.68;4.53;;;;;;;14.73;41.46;98116.06;5070532;28;45431;-81
2021/04/20 08:31:27;;;;;;;6.35;4.15;;;;;;;17.08;34.65;98108.31;5057123;28;46237;-81
2021/04/20 08:33:57;;;;;;;6.47;3.55;;;;;;;17.28;36.08;98105.69;5057070;28;45431;-81
2021/04/20 08:36:53;;;;;;;5.25;3.50;;;;;;;18.07;35.27;98103.31;5072452;27;45385;-80
2021/04/20 08:39:27;;;;;;;5.30;3.30;;;;;;;21.19;30.31;98101.03;5057267;28;45472;-81
2021/04/20 08:42:23;;;;;;;4.03;3.10;;;;;;;26.41;21.91;98100.91;5056551;28;46360;-80
2021/04/20 08:45:07;;;;;;;5.18;3.63;;;;;;;29.18;18.09;98091.53;5056875;28;45335;-81
2021/04/20 08:48:03;;;;;;;4.20;3.15;;;;;;;29.77;17.01;98101.84;5055778;28;45376;-81
2021/04/20 08:50:32;;;;;;;5.15;3.00;;;;;;;30.97;16.23;98092.16;5067436;28;45285;-82
2021/04/20 08:53:11;;;;;;;3.83;2.45;;;;;;;31.98;14.01;98089.34;5059246;27;45450;-81
2021/04/20 08:55:54;;;;;;;3.88;2.80;;;;;;;32.42;12.43;98078.94;5056545;28;45230;-81
2021/04/20 08:58:38;;;;;;;11.02;3.60;;;;;;;34.04;12.64;98080.66;5070211;28;45448;-82
2021/04/20 09:01:34;;;;;;;4.63;2.58;;;;;;;35.47;12.40;98087.09;5056661;28;45485;-81
2021/04/20 09:04:27;;;;;;;3.75;3.17;;;;;;;36.60;11.47;98078.13;5056739;28;45226;-82
2021/04/20 09:07:02;;;;;;;4.80;2.72;;;;;;;34.39;10.77;98070.91;5056734;28;45416;-82
2021/04/20 09:09:31;;;;;;;3.75;2.95;;;;;;;35.25;9.76;98078.97;5056495;28;45313;-82
2021/04/20 09:12:01;;;;;;;3.28;2.80;;;;;;;34.67;9.98;98074.31;5054838;28;45302;-82
2021/04/20 09:14:30;;;;;;;3.33;2.83;;;;;;;35.32;9.98;98071.03;5069929;28;46366;-82
2021/04/20 09:17:00;;;;;;;3.55;2.58;;;;;;;36.82;8.87;98065.97;5065271;28;45364;-82
2021/04/20 09:20:06;;;;;;;3.42;2.72;;;;;;;35.93;10.38;98076.50;5069815;27;45269;-82
2021/04/20 09:22:54;;;;;;;4.72;2.63;;;;;;;36.52;10.09;98068.72;5070019;28;45681;-82
2021/04/20 09:25:27;;;;;;;3.58;2.75;;;;;;;35.88;11.10;98065.63;5056074;28;45301;-82
2021/04/20 09:28:04;;;;;;;3.85;2.72;;;;;;;38.02;8.86;98064.88;5056360;28;45372;-80
2021/04/20 09:31:17;;;;;;;3.90;2.88;;;;;;;37.52;8.60;98059.94;5056610;28;45359;-80
2021/04/20 09:33:52;;;;;;;6.38;3.30;;;;;;;36.37;9.02;98061.78;5051047;28;45427;-82
2021/04/20 09:36:19;;;;;;;3.90;3.17;;;;;;;34.32;10.61;98057.56;5091835;27;45341;-81
2021/04/20 09:38:49;;;;;;;4.75;2.80;;;;;;;30.91;14.19;98043.91;5075445;28;45726;-82
2021/04/20 09:41:17;;;;;;;3.40;2.58;;;;;;;29.04;15.10;98041.22;5073094;28;45259;-81
2021/04/20 09:44:10;;;;;;;4.32;2.60;;;;;;;27.95;18.35;98036.91;5059688;28;45319;-82
2021/04/20 09:46:47;;;;;;;4.18;2.75;;;;;;;26.59;18.97;98041.56;5059384;28;45445;-82
2021/04/20 09:49:34;;;;;;;3.10;2.50;;;;;;;25.71;21.44;98033.66;5059541;28;45352;-82
2021/04/20 09:52:06;;;;;;;3.00;2.42;;;;;;;23.78;18.91;98033.47;5059818;28;45348;-83
2021/04/20 09:54:40;;;;;;;3.78;2.53;;;;;;;22.94;22.73;98023.06;5059195;28;45383;-85
2021/04/20 09:57:07;;;;;;;3.35;2.58;;;;;;;21.96;21.99;98021.81;5068670;28;46248;-87
2021/04/20 09:59:43;;;;;;;5.10;3.35;;;;;;;21.14;24.55;98026.84;5063127;27;45365;-85
2021/04/20 10:02:33;;;;;;;5.13;2.78;;;;;;;20.34;24.90;98017.88;5059572;28;45371;-83
2021/04/20 10:05:13;;;;;;;3.78;3.15;;;;;;;20.09;24.28;98026.03;5060858;28;45544;-86
2021/04/20 10:07:47;;;;;;;5.47;2.78;;;;;;;20.19;28.38;98014.72;5059311;28;46045;-88
2021/04/20 10:10:36;;;;;;;3.70;3.03;;;;;;;20.37;25.64;98008.50;5066440;28;45789;-87
2021/04/20 10:13:02;;;;;;;4.47;3.30;;;;;;;20.22;28.80;98009.69;5065111;28;45554;-91
2021/04/20 10:15:45;;;;;;;3.75;3.08;;;;;;;20.40;27.44;98000.78;5068602;28;45205;-91
2021/04/20 10:18:23;;;;;;;5.75;3.50;;;;;;;20.34;29.12;98000.88;5069354;27;45482;-91
2021/04/20 10:21:04;;;;;;;5.68;3.22;;;;;;;20.06;25.29;98005.72;5059035;28;45670;-85
2021/04/20 10:23:32;;;;;;;;;;;;;;;20.01;27.49;97997.47;5059634;28;45215;-88
2021/04/20 10:26:10;;;;;;;3.95;2.63;;;;;;;19.29;25.64;97989.78;5059118;28;45306;-89
2021/04/20 10:28:45;;;;;;;4.10;3.30;;;;;;;18.66;26.13;97984.13;5058988;28;45479;-87
2021/04/20 10:31:17;;;;;;;5.50;3.65;;;;;;;18.83;28.68;97992.50;5059056;28;45446;-87
2021/04/20 10:33:48;;;;;;;6.35;4.65;;;;;;;18.75;28.48;97985.50;5058809;28;45197;-85
2021/04/20 10:36:15;;;;;;;5.43;4.15;;;;;;;19.10;29.50;97981.63;5073084;27;45888;-88
2021/04/20 10:38:41;;;;;;;5.90;3.58;;;;;;;18.98;26.73;97977.94;5072912;27;46665;-91
2021/04/20 10:41:27;;;;;;;5.75;3.60;;;;;;;18.81;29.37;97976.56;5074471;27;45606;-86
2021/04/20 10:43:55;;;;;;;4.38;3.50;;;;;;;18.60;31.19;97972.31;5059886;28;45258;-86
2021/04/20 10:46:25;;;;;;;4.80;3.20;;;;;;;18.35;28.87;97975.75;5061738;28;45502;-83
2021/04/20 10:48:59;;;;;;;5.25;3.90;;;;;;;17.99;28.12;97974.38;5068735;28;46060;-85
2021/04/20 10:51:34;;;;;;;5.65;3.58;;;;;;;18.03;31.58;97967.56;5058385;28;45343;-83
2021/04/20 10:54:01;;;;;;;4.50;3.75;;;;;;;17.80;29.59;97965.31;5058382;28;45236;-83
2021/04/20 10:56:30;;;;;;;4.30;3.17;;;;;;;17.60;30.01;97957.28;5059831;27;45509;-84
2021/04/20 10:58:57;;;;;;;7.53;3.85;;;;;;;18.04;31.22;97953.06;5075008;27;45963;-84
2021/04/20 11:01:27;;;;;;;5.63;3.38;;;;;;;17.92;29.77;97947.50;5059014;28;45403;-82
2021/04/20 11:03:54;;;;;;;9.35;3.80;;;;;;;18.03;30.17;97940.66;5078001;27;45529;-83
2021/04/20 11:06:38;;;;;;;7.00;3.30;;;;;;;18.01;32.01;97942.72;5061679;28;45476;-84
2021/04/20 11:09:03;;;;;;;4.03;3.28;;;;;;;18.18;29.46;97939.59;5063008;28;48482;-85
2021/04/20 11:11:29;;;;;;;4.60;3.05;;;;;;;17.95;30.44;97935.47;5057850;28;45627;-84
2021/04/20 11:13:54;;;;;;;5.45;3.33;;;;;;;18.21;34.40;97931.91;5073022;28;45345;-85
2021/04/20 11:16:40;;;;;;;5.90;3.30;;;;;;;18.21;31.01;97918.47;5063780;28;45333;-86
2021/04/20 11:19:12;;;;;;;4.88;3.47;;;;;;;18.08;30.92;97921.19;5071783;27;46546;-83
2021/04/20 11:21:42;;;;;;;5.28;3.85;;;;;;;17.71;29.35;97915.50;5067507;28;45313;-83
2021/04/20 11:24:18;;;;;;;6.68;3.50;;;;;;;17.98;33.17;97910.03;5072860;27;45454;-82
2021/04/20 11:26:53;;;;;;;5.65;3.58;;;;;;;18.12;32.10;97908.16;5074369;27;45598;-83
2021/04/20 11:29:52;;;;;;;5.15;3.30;;;;;;;17.91;30.15;97901.97;5068833;28;45289;-84
2021/04/20 11:32:21;;;;;;;4.72;3.28;;;;;;;17.72;28.59;97898.31;5057853;28;45356;-83
2021/04/20 11:34:51;;;;;;;3.90;3.10;;;;;;;17.60;29.33;97898.94;5060577;27;45414;-83
2021/04/20 11:37:22;;;;;;;6.13;2.97;;;;;;;17.41;27.02;97887.22;5076891;27;45390;-83
2021/04/20 11:40:27;;;;;;;3.97;2.67;;;;;;;17.49;28.59;97881.63;5057405;28;46293;-83
2021/04/20 11:42:55;;;;;;;4.32;3.20;;;;;;;17.58;29.83;97879.50;5048895;28;45867;-82
2021/04/20 11:45:26;;;;;;;5.40;3.10;;;;;;;17.81;29.26;97878.22;5057672;28;45343;-83
2021/04/20 11:47:58;;;;;;;4.57;3.00;;;;;;;17.97;30.67;97876.09;5058544;28;45450;-83
2021/04/20 11:50:28;;;;;;;4.45;3.03;;;;;;;17.84;28.54;97882.34;5061061;28;45978;-83
2021/04/20 11:53:04;;;;;;;4.03;2.43;;;;;;;17.59;27.64;97874.97;5071706;27;45444;-84
2021/04/20 11:55:55;;;;;;;2.70;2.28;;;;;;;17.86;27.60;97866.81;5060893;27;45711;-83
2021/04/20 11:58:31;;;;;;;3.15;2.15;;;;;;;17.94;29.71;97862.03;5076272;28;45405;-83
2021/04/20 12:01:06;;;;;;;2.97;2.10;;;;;;;18.16;29.61;97864.47;5062430;27;45661;-83